createdAt,value
2017-11-04T00:00:29.767Z,73.53
2017-11-04T00:02:56.285Z,74.03
2017-11-04T00:05:22.769Z,67.65
2017-11-04T00:07:49.984Z,74.85
2017-11-04T00:10:16.462Z,63.17
2017-11-04T00:12:42.998Z,74.07
2017-11-04T00:15:09.435Z,69.15
2017-11-04T00:17:35.924Z,75.65
2017-11-04T00:20:02.420Z,67.65
2017-11-04T00:22:28.852Z,73.05
2017-11-04T00:24:55.350Z,87.45
2017-11-04T00:27:21.794Z,102.90
2017-11-04T00:29:48.255Z,113.80
2017-11-04T00:32:14.710Z,92.50
2017-11-04T00:34:41.159Z,113.28
2017-11-04T00:37:07.657Z,100.62
2017-11-04T00:39:34.090Z,91.72
2017-11-04T00:42:00.621Z,95.12
2017-11-04T00:44:27.223Z,102.85
2017-11-04T00:46:53.682Z,96.60
2017-11-04T00:49:20.991Z,89.95
2017-11-04T00:51:47.464Z,104.97
2017-11-04T00:54:13.912Z,98.05
2017-11-04T00:56:41.155Z,90.78
2017-11-04T00:59:07.595Z,76.70
2017-11-04T01:01:34.047Z,90.57
2017-11-04T01:04:01.267Z,83.85
2017-11-04T01:06:27.688Z,90.35
2017-11-04T01:08:54.170Z,95.15
2017-11-04T01:11:20.600Z,97.03
2017-11-04T01:13:47.093Z,83.70
2017-11-04T01:16:13.535Z,90.28
2017-11-04T01:18:39.988Z,82.03
2017-11-04T01:21:06.448Z,95.85
2017-11-04T01:23:33.067Z,83.32
2017-11-04T01:25:59.543Z,80.22
2017-11-04T01:28:26.004Z,92.45
2017-11-04T01:30:53.207Z,80.35
2017-11-04T01:33:19.653Z,113.18
2017-11-04T01:35:46.531Z,90.60
2017-11-04T01:38:13.839Z,85.68
2017-11-04T01:40:40.308Z,101.25
2017-11-04T01:43:06.818Z,104.95
2017-11-04T01:45:33.260Z,88.68
2017-11-04T01:47:59.721Z,97.20
2017-11-04T01:50:26.182Z,106.18
2017-11-04T01:52:52.686Z,91.97
2017-11-04T01:55:19.144Z,89.37
2017-11-04T01:57:45.598Z,92.70
2017-11-04T02:00:12.847Z,87.30
2017-11-04T02:02:39.307Z,86.80
2017-11-04T02:05:06.532Z,83.22
2017-11-04T02:07:33.041Z,101.32
2017-11-04T02:09:59.628Z,76.93
2017-11-04T02:12:26.090Z,86.03
2017-11-04T02:14:53.288Z,75.07
2017-11-04T02:17:19.750Z,84.25
2017-11-04T02:19:46.207Z,87.22
2017-11-04T02:22:12.683Z,72.25
2017-11-04T02:24:39.151Z,79.20
2017-11-04T02:27:05.602Z,76.70
2017-11-04T02:29:32.109Z,86.28
2017-11-04T02:31:58.547Z,85.45
2017-11-04T02:34:25.024Z,76.82
2017-11-04T02:36:51.560Z,83.50
2017-11-04T02:39:18.095Z,57.22
2017-11-04T02:41:44.544Z,82.30
2017-11-04T02:44:10.998Z,74.35
2017-11-04T02:46:37.477Z,68.20
2017-11-04T02:49:03.918Z,68.72
2017-11-04T02:51:30.463Z,80.68
2017-11-04T02:53:57.003Z,71.37
2017-11-04T02:56:23.446Z,70.35
2017-11-04T02:58:49.909Z,70.72
2017-11-04T03:01:16.376Z,91.90
2017-11-04T03:03:42.859Z,71.28
2017-11-04T03:06:09.464Z,76.22
2017-11-04T03:08:35.887Z,70.30
2017-11-04T03:11:02.355Z,74.20
2017-11-04T03:13:29.560Z,89.70
2017-11-04T03:15:55.995Z,76.03
2017-11-04T03:18:22.432Z,76.55
2017-11-04T03:20:48.852Z,76.18
2017-11-04T03:23:15.383Z,77.47
2017-11-04T03:25:41.838Z,70.37
2017-11-04T03:28:08.281Z,70.00
2017-11-04T03:30:34.729Z,74.32
2017-11-04T03:33:01.219Z,68.53
2017-11-04T03:35:28.400Z,60.70
2017-11-04T03:37:54.863Z,62.50
2017-11-04T03:40:21.513Z,71.03
2017-11-04T03:42:47.923Z,68.45
2017-11-04T03:45:14.371Z,60.33
2017-11-04T03:47:40.811Z,58.13
2017-11-04T03:50:07.438Z,65.78
2017-11-04T03:52:33.883Z,64.10
2017-11-04T03:55:00.329Z,63.00
2017-11-04T03:57:26.867Z,65.20
2017-11-04T03:59:53.314Z,60.03
2017-11-04T04:02:19.920Z,62.97
2017-11-04T04:04:47.132Z,56.67
2017-11-04T04:07:13.619Z,59.28
2017-11-04T04:09:40.899Z,54.40
2017-11-04T04:12:07.359Z,59.65
2017-11-04T04:14:33.796Z,58.90
2017-11-04T04:17:00.254Z,46.03
2017-11-04T04:19:26.737Z,54.13
2017-11-04T04:21:53.915Z,52.15
2017-11-04T04:24:20.421Z,59.85
2017-11-04T04:26:47.608Z,43.17
2017-11-04T04:29:14.023Z,43.87
2017-11-04T04:31:41.255Z,45.53
2017-11-04T04:34:07.697Z,48.53
2017-11-04T04:36:36.680Z,55.38
2017-11-04T04:39:03.120Z,55.80
2017-11-04T04:41:29.566Z,51.72
2017-11-04T04:43:56.086Z,49.90
2017-11-04T04:46:22.531Z,53.03
2017-11-04T04:48:49.012Z,57.75
2017-11-04T04:51:16.197Z,54.50
2017-11-04T04:53:42.620Z,59.85
2017-11-04T04:56:09.072Z,53.67
2017-11-04T04:58:35.579Z,51.20
2017-11-04T05:01:02.759Z,55.30
2017-11-04T05:03:29.207Z,57.90
2017-11-04T05:05:55.669Z,52.97
2017-11-04T05:08:22.120Z,55.90
2017-11-04T05:10:48.595Z,63.58
2017-11-04T05:13:15.772Z,53.13
2017-11-04T05:15:42.202Z,62.85
2017-11-04T05:18:08.647Z,58.55
2017-11-04T05:20:35.187Z,52.05
2017-11-04T05:23:01.640Z,53.85
2017-11-04T05:25:28.067Z,58.97
2017-11-04T05:27:54.535Z,50.78
2017-11-04T05:30:20.960Z,67.37
2017-11-04T05:32:47.468Z,46.97
2017-11-04T05:35:13.889Z,52.38
2017-11-04T05:37:41.055Z,52.55
2017-11-04T05:40:08.247Z,44.92
2017-11-04T05:42:35.221Z,48.53
2017-11-04T05:45:01.769Z,53.13
2017-11-04T05:47:28.263Z,44.88
2017-11-04T05:49:54.754Z,51.25
2017-11-04T05:52:21.400Z,52.62
2017-11-04T05:54:47.867Z,52.58
2017-11-04T05:57:14.434Z,48.17
2017-11-04T05:59:40.856Z,46.22
2017-11-04T06:02:07.431Z,49.35
2017-11-04T06:04:33.918Z,49.13
2017-11-04T06:07:01.217Z,47.95
2017-11-04T06:09:27.708Z,52.75
2017-11-04T06:11:54.911Z,48.55
2017-11-04T06:14:21.393Z,43.15
2017-11-04T06:16:47.855Z,45.47
2017-11-04T06:19:14.355Z,43.85
2017-11-04T06:21:40.867Z,43.10
2017-11-04T06:24:07.349Z,46.90
2017-11-04T06:26:33.793Z,42.25
2017-11-04T06:29:01.004Z,43.25
2017-11-04T06:31:27.493Z,37.17
2017-11-04T06:33:53.951Z,48.05
2017-11-04T06:36:21.123Z,45.47
2017-11-04T06:38:47.591Z,44.50
2017-11-04T06:41:14.059Z,47.35
2017-11-04T06:43:40.519Z,49.60
2017-11-04T06:46:07.922Z,51.47
2017-11-04T06:48:34.453Z,46.00
2017-11-04T06:51:01.027Z,43.67
2017-11-04T06:53:27.523Z,44.22
2017-11-04T06:55:53.984Z,40.97
2017-11-04T06:58:20.431Z,37.67
2017-11-04T07:00:46.879Z,35.22
2017-11-04T07:03:13.304Z,40.90
2017-11-04T07:05:39.842Z,36.38
2017-11-04T07:08:06.310Z,35.22
2017-11-04T07:10:32.755Z,35.05
2017-11-04T07:12:59.236Z,32.50
2017-11-04T07:15:25.688Z,31.83
2017-11-04T07:17:52.123Z,34.83
2017-11-04T07:20:18.619Z,33.80
2017-11-04T07:22:45.835Z,39.85
2017-11-04T07:25:12.308Z,34.85
2017-11-04T07:27:38.759Z,38.72
2017-11-04T07:30:06.019Z,31.53
2017-11-04T07:32:33.216Z,33.97
2017-11-04T07:34:59.695Z,29.37
2017-11-04T07:37:26.201Z,28.65
2017-11-04T07:39:52.688Z,31.83
2017-11-04T07:42:19.903Z,32.47
2017-11-04T07:44:46.326Z,31.35
2017-11-04T07:47:12.778Z,31.17
2017-11-04T07:49:39.424Z,28.95
2017-11-04T07:52:06.767Z,33.33
2017-11-04T07:54:33.261Z,35.40
2017-11-04T07:57:00.446Z,35.90
2017-11-04T07:59:26.935Z,37.92
2017-11-04T08:01:53.594Z,36.15
2017-11-04T08:04:20.863Z,34.83
2017-11-04T08:06:48.063Z,36.13
2017-11-04T08:09:14.640Z,33.08
2017-11-04T08:11:41.116Z,37.87
2017-11-04T08:14:07.588Z,35.73
2017-11-04T08:16:34.067Z,32.23
2017-11-04T08:19:00.507Z,37.03
2017-11-04T08:21:27.018Z,34.70
2017-11-04T08:23:53.488Z,34.17
2017-11-04T08:26:20.685Z,31.80
2017-11-04T08:28:47.155Z,32.70
2017-11-04T08:31:13.664Z,31.87
2017-11-04T08:33:40.156Z,31.27
2017-11-04T08:36:06.599Z,31.93
2017-11-04T08:38:33.085Z,29.00
2017-11-04T08:40:59.545Z,32.60
2017-11-04T08:43:25.968Z,27.43
2017-11-04T08:45:52.432Z,30.20
2017-11-04T08:48:18.899Z,29.20
2017-11-04T08:50:46.106Z,30.53
2017-11-04T08:53:12.528Z,32.17
2017-11-04T08:55:39.003Z,28.70
2017-11-04T08:58:05.591Z,26.40
2017-11-04T09:00:32.768Z,30.27
2017-11-04T09:02:59.368Z,24.20
2017-11-04T09:05:25.847Z,25.70
2017-11-04T09:07:52.328Z,23.90
2017-11-04T09:10:18.772Z,25.90
2017-11-04T09:12:45.243Z,24.07
2017-11-04T09:15:12.440Z,24.73
2017-11-04T09:17:38.892Z,25.10
2017-11-04T09:20:05.386Z,22.20
2017-11-04T09:22:31.839Z,19.73
2017-11-04T09:24:58.328Z,19.90
2017-11-04T09:27:24.793Z,19.93
2017-11-04T09:29:51.963Z,20.53
2017-11-04T09:32:18.443Z,21.50
2017-11-04T09:34:44.884Z,19.73
2017-11-04T09:37:11.552Z,20.87
2017-11-04T09:39:38.012Z,18.93
2017-11-04T09:42:05.308Z,17.73
2017-11-04T09:44:31.732Z,19.30
2017-11-04T09:46:58.164Z,21.40
2017-11-04T09:49:24.733Z,21.77
2017-11-04T09:51:52.145Z,20.63
2017-11-04T09:54:19.618Z,18.13
2017-11-04T09:56:46.916Z,17.50
2017-11-04T09:59:13.350Z,18.07
2017-11-04T10:01:39.866Z,18.67
2017-11-04T10:04:06.391Z,17.03
2017-11-04T10:06:34.028Z,17.37
2017-11-04T10:09:00.763Z,18.43
2017-11-04T10:11:27.232Z,17.50
2017-11-04T10:13:54.506Z,17.00
2017-11-04T10:16:21.783Z,16.80
2017-11-04T10:18:48.235Z,18.43
2017-11-04T10:21:14.660Z,16.83
2017-11-04T10:23:41.115Z,16.50
2017-11-04T10:26:07.615Z,16.70
2017-11-04T10:28:34.844Z,17.43
2017-11-04T10:31:01.302Z,15.37
2017-11-04T10:33:28.548Z,17.80
2017-11-04T10:35:54.981Z,14.87
2017-11-04T10:38:21.612Z,15.83
2017-11-04T10:40:48.131Z,17.57
2017-11-04T10:43:14.567Z,14.77
2017-11-04T10:45:41.020Z,15.97
2017-11-04T10:48:07.460Z,14.70
2017-11-04T10:50:33.927Z,16.30
2017-11-04T10:53:00.397Z,16.00
2017-11-04T10:55:26.840Z,15.87
2017-11-04T10:57:53.359Z,15.70
2017-11-04T11:00:20.546Z,14.03
2017-11-04T11:02:47.392Z,16.37
2017-11-04T11:05:14.044Z,14.57
2017-11-04T11:07:40.503Z,14.60
2017-11-04T11:10:07.206Z,14.97
2017-11-04T11:12:33.783Z,16.03
2017-11-04T11:15:00.372Z,16.00
2017-11-04T11:17:27.966Z,16.70
2017-11-04T11:20:01.604Z,14.70
2017-11-04T11:22:28.080Z,14.50
2017-11-04T11:24:55.243Z,16.20
2017-11-04T11:27:22.472Z,16.33
2017-11-04T11:29:50.442Z,15.90
2017-11-04T11:32:23.932Z,17.80
2017-11-04T11:34:50.376Z,16.70
2017-11-04T11:37:18.314Z,18.00
2017-11-04T11:39:44.847Z,17.73
2017-11-04T11:42:11.290Z,16.67
2017-11-04T11:44:37.780Z,16.57
2017-11-04T11:47:04.251Z,17.20
2017-11-04T11:49:30.736Z,16.83
2017-11-04T11:54:52.618Z,16.30
2017-11-04T11:57:19.912Z,17.23
2017-11-04T11:59:46.585Z,16.60
2017-11-04T12:02:13.072Z,15.00
2017-11-04T12:04:39.694Z,14.67
2017-11-04T12:07:06.255Z,17.13
2017-11-04T12:09:33.174Z,19.07
2017-11-04T12:11:59.863Z,16.83
2017-11-04T12:14:28.631Z,17.43
2017-11-04T12:16:55.198Z,15.80
2017-11-04T12:19:21.749Z,13.13
2017-11-04T12:21:48.926Z,14.40
2017-11-04T12:24:15.539Z,11.23
2017-11-04T12:26:41.969Z,9.63
2017-11-04T12:29:09.945Z,9.23
2017-11-04T12:31:36.402Z,10.60
2017-11-04T12:34:03.617Z,9.63
2017-11-04T12:36:30.116Z,12.30
2017-11-04T12:38:56.556Z,8.87
2017-11-04T12:41:23.052Z,11.30
2017-11-04T12:43:49.509Z,10.87
2017-11-04T12:46:16.693Z,7.73
2017-11-04T12:48:43.167Z,13.77
2017-11-04T12:51:09.608Z,11.13
2017-11-04T12:53:36.160Z,9.23
2017-11-04T12:56:02.604Z,13.07
2017-11-04T12:58:29.047Z,11.90
2017-11-04T13:00:55.585Z,12.33
2017-11-04T13:03:36.970Z,12.67
2017-11-04T13:06:03.735Z,11.27
2017-11-04T13:08:31.013Z,11.77
2017-11-04T13:10:57.550Z,11.70
2017-11-04T13:13:24.038Z,10.70
2017-11-04T13:15:50.501Z,12.07
2017-11-04T13:18:17.876Z,11.20
2017-11-04T13:20:45.070Z,11.77
2017-11-04T13:23:11.609Z,9.60
2017-11-04T13:25:38.138Z,10.00
2017-11-04T13:28:04.628Z,13.30
2017-11-04T13:30:31.196Z,12.37
2017-11-04T13:32:58.433Z,9.23
2017-11-04T13:35:24.970Z,10.30
2017-11-04T13:37:52.256Z,11.97
2017-11-04T13:40:19.206Z,12.70
2017-11-04T13:42:45.719Z,19.97
2017-11-04T13:45:12.284Z,14.87
2017-11-04T13:47:53.655Z,13.70
2017-11-04T13:50:20.914Z,12.67
2017-11-04T13:52:48.155Z,11.90
2017-11-04T13:55:15.380Z,13.10
2017-11-04T13:57:42.022Z,12.53
2017-11-04T14:00:08.490Z,13.33
2017-11-04T14:02:34.957Z,13.13
2017-11-04T14:05:01.460Z,11.80
2017-11-04T14:09:53.609Z,12.43
2017-11-04T14:12:20.209Z,11.67
2017-11-04T14:14:46.815Z,11.63
2017-11-04T14:17:16.871Z,12.20
2017-11-04T14:19:43.347Z,12.17
2017-11-04T14:22:09.843Z,11.73
2017-11-04T14:24:36.334Z,11.60
2017-11-04T14:27:02.935Z,13.00
2017-11-04T14:29:29.405Z,13.70
2017-11-04T14:31:56.042Z,12.23
2017-11-04T14:34:22.508Z,12.67
2017-11-04T14:36:48.960Z,12.10
2017-11-04T14:39:16.209Z,13.30
2017-11-04T14:41:42.673Z,11.23
2017-11-04T14:44:09.911Z,12.67
2017-11-04T14:46:37.972Z,12.37
2017-11-04T14:49:04.549Z,12.87
2017-11-04T14:51:31.756Z,13.70
2017-11-04T14:53:58.356Z,13.60
2017-11-04T14:56:25.008Z,17.00
2017-11-04T14:58:51.517Z,15.87
2017-11-04T15:01:18.031Z,17.13
2017-11-04T15:03:44.522Z,16.97
2017-11-04T15:06:11.111Z,17.50
2017-11-04T15:08:37.767Z,16.70
2017-11-04T15:11:04.202Z,22.50
2017-11-04T15:13:30.687Z,16.73
2017-11-04T15:15:57.233Z,16.23
2017-11-04T15:18:23.792Z,19.87
2017-11-04T15:20:50.245Z,18.03
2017-11-04T15:23:16.811Z,19.60
2017-11-04T15:25:44.745Z,19.67
2017-11-04T15:28:11.208Z,19.20
2017-11-04T15:30:37.780Z,21.20
2017-11-04T15:33:05.026Z,19.93
2017-11-04T15:35:31.525Z,20.90
2017-11-04T15:37:58.001Z,20.67
2017-11-04T15:40:25.949Z,18.53
2017-11-04T15:42:52.436Z,22.00
2017-11-04T15:45:19.611Z,21.63
2017-11-04T15:47:46.093Z,21.53
2017-11-04T15:50:12.537Z,20.40
2017-11-04T15:52:40.150Z,23.57
2017-11-04T15:55:06.674Z,24.03
2017-11-04T15:57:33.964Z,22.50
2017-11-04T16:00:00.453Z,22.47
2017-11-04T16:02:27.765Z,28.33
2017-11-04T16:04:54.280Z,25.53
2017-11-04T16:07:20.857Z,24.60
2017-11-04T16:09:47.424Z,25.60
2017-11-04T16:12:14.013Z,27.50
2017-11-04T16:14:40.483Z,21.50
2017-11-04T16:17:06.941Z,23.33
2017-11-04T16:19:33.915Z,23.97
2017-11-04T16:22:01.123Z,24.00
2017-11-04T16:24:27.700Z,22.50
2017-11-04T16:26:54.220Z,23.53
2017-11-04T16:29:20.709Z,22.83
2017-11-04T16:31:47.945Z,25.40
2017-11-04T16:34:16.301Z,23.03
2017-11-04T16:36:43.845Z,23.77
2017-11-04T16:39:12.213Z,25.10
2017-11-04T16:41:39.378Z,23.40
2017-11-04T16:44:06.779Z,24.10
2017-11-04T16:46:35.202Z,24.20
2017-11-04T16:49:01.981Z,25.60
2017-11-04T16:51:28.485Z,22.90
2017-11-04T16:53:54.956Z,28.53
2017-11-04T16:56:36.453Z,24.60
2017-11-04T16:59:02.968Z,25.57
2017-11-04T17:01:29.856Z,25.27
2017-11-04T17:03:57.120Z,30.03
2017-11-04T17:06:24.472Z,29.80
2017-11-04T17:08:50.974Z,27.80
2017-11-04T17:11:17.520Z,29.50
2017-11-04T17:13:44.246Z,26.90
2017-11-04T17:16:10.826Z,25.47
2017-11-04T17:18:37.514Z,25.77
2017-11-04T17:21:03.972Z,24.40
2017-11-04T17:23:30.509Z,22.03
2017-11-04T17:25:57.997Z,26.60
2017-11-04T17:28:24.593Z,22.60
2017-11-04T17:30:51.076Z,26.33
2017-11-04T17:33:17.586Z,26.70
2017-11-04T17:35:44.057Z,28.10
2017-11-04T17:38:10.689Z,24.20
2017-11-04T17:40:37.226Z,27.17
2017-11-04T17:43:03.692Z,25.70
2017-11-04T17:45:30.163Z,30.20
2017-11-04T17:47:57.397Z,30.67
2017-11-04T17:50:24.163Z,24.70
2017-11-04T17:52:50.683Z,24.23
2017-11-04T17:55:17.156Z,25.97
2017-11-04T17:57:45.327Z,24.37
2017-11-04T18:00:12.563Z,23.60
2017-11-04T18:02:39.327Z,22.50
2017-11-04T18:05:08.110Z,21.73
2017-11-04T18:07:34.599Z,21.13
2017-11-04T18:10:01.614Z,21.13
2017-11-04T18:12:28.869Z,22.63
2017-11-04T18:14:57.075Z,24.57
2017-11-04T18:17:24.857Z,21.60
2017-11-04T18:19:51.389Z,23.30
2017-11-04T18:22:19.168Z,21.77
2017-11-04T18:24:45.827Z,21.80
2017-11-04T18:27:13.741Z,23.53
2017-11-04T18:29:42.049Z,28.07
2017-11-04T18:32:09.532Z,38.10
2017-11-04T18:34:37.422Z,39.03
2017-11-04T18:37:04.129Z,42.30
2017-11-04T18:39:32.112Z,37.87
2017-11-04T18:41:58.687Z,31.70
2017-11-04T18:44:25.494Z,33.40
2017-11-04T18:46:53.270Z,34.17
2017-11-04T18:49:20.834Z,35.60
2017-11-04T18:51:48.318Z,33.10
2017-11-04T18:54:16.304Z,34.37
2017-11-04T18:56:44.736Z,31.03
2017-11-04T18:59:12.807Z,29.57
2017-11-04T19:01:40.479Z,30.67
2017-11-04T19:04:08.672Z,28.30
2017-11-04T19:06:35.626Z,27.97
2017-11-04T19:09:02.677Z,34.40
2017-11-04T19:11:31.696Z,28.77
2017-11-04T19:13:59.758Z,30.53
2017-11-04T19:16:26.668Z,32.50
2017-11-04T19:18:55.492Z,32.33
2017-11-04T19:21:22.273Z,37.93
2017-11-04T19:23:49.976Z,35.53
2017-11-04T19:26:17.370Z,27.10
2017-11-04T19:28:44.728Z,30.93
2017-11-04T19:31:12.095Z,28.47
2017-11-04T19:33:38.535Z,24.73
2017-11-04T19:36:05.166Z,25.10
2017-11-04T19:38:31.687Z,26.50
2017-11-04T19:40:58.890Z,24.37
2017-11-04T19:43:25.412Z,23.37
2017-11-04T19:45:52.019Z,23.10
2017-11-04T19:48:19.235Z,23.00
2017-11-04T19:50:45.906Z,21.70
2017-11-04T19:53:12.378Z,22.27
2017-11-04T19:55:39.159Z,24.80
2017-11-04T19:58:06.465Z,24.87
2017-11-04T20:00:33.694Z,23.50
2017-11-04T20:03:00.209Z,26.93
2017-11-04T20:05:26.745Z,25.80
2017-11-04T20:07:53.190Z,25.90
2017-11-04T20:10:19.783Z,25.67
2017-11-04T20:12:46.979Z,24.10
2017-11-04T20:15:13.464Z,29.63
2017-11-04T20:17:40.715Z,24.63
2017-11-04T20:20:07.218Z,23.13
2017-11-04T20:22:33.736Z,24.20
2017-11-04T20:25:00.291Z,25.10
2017-11-04T20:27:27.154Z,32.90
2017-11-04T20:29:53.797Z,28.63
2017-11-04T20:32:20.378Z,37.60
2017-11-04T20:34:46.901Z,29.20
2017-11-04T20:37:13.477Z,33.83
2017-11-04T20:39:40.677Z,23.43
2017-11-04T20:42:07.149Z,28.77
2017-11-04T20:44:33.815Z,23.90
2017-11-04T20:47:01.040Z,28.57
2017-11-04T20:49:27.703Z,27.80
2017-11-04T20:51:55.599Z,29.20
2017-11-04T20:54:22.096Z,34.63
2017-11-04T20:56:48.882Z,33.77
2017-11-04T20:59:15.889Z,39.63
2017-11-04T21:01:42.765Z,34.47
2017-11-04T21:04:10.147Z,35.20
2017-11-04T21:06:36.934Z,30.37
2017-11-04T21:09:04.597Z,28.87
2017-11-04T21:11:32.556Z,27.13
2017-11-04T21:13:59.054Z,23.97
2017-11-04T21:16:26.349Z,37.87
2017-11-04T21:18:53.099Z,35.40
2017-11-04T21:21:19.834Z,30.20
2017-11-04T21:23:47.395Z,24.83
2017-11-04T21:26:14.669Z,42.20
2017-11-04T21:28:41.911Z,42.83
2017-11-04T21:31:23.285Z,43.50
2017-11-04T21:33:49.767Z,43.57
2017-11-04T21:36:16.362Z,46.60
2017-11-04T21:38:42.824Z,25.90
2017-11-04T21:41:09.350Z,28.90
2017-11-04T21:43:35.960Z,32.53
2017-11-04T21:46:03.215Z,38.27
2017-11-04T21:48:30.468Z,39.97
2017-11-04T21:50:56.936Z,40.90
2017-11-04T21:53:23.577Z,43.07
2017-11-04T21:55:50.030Z,42.23
2017-11-04T21:58:16.512Z,35.73
2017-11-04T22:00:43.031Z,33.90
2017-11-04T22:03:09.542Z,31.53
2017-11-04T22:05:36.093Z,35.73
2017-11-04T22:08:02.541Z,35.23
2017-11-04T22:10:29.036Z,35.90
2017-11-04T22:12:56.253Z,44.40
2017-11-04T22:15:22.767Z,42.00
2017-11-04T22:17:49.283Z,33.27
2017-11-04T22:20:16.505Z,36.03
2017-11-04T22:22:43.813Z,35.83
2017-11-04T22:25:10.261Z,37.10
2017-11-04T22:27:36.817Z,28.40
2017-11-04T22:30:03.443Z,31.07
2017-11-04T22:32:29.905Z,27.03
2017-11-04T22:34:56.364Z,30.77
2017-11-04T22:37:22.851Z,35.23
2017-11-04T22:39:49.356Z,36.20
2017-11-04T22:42:15.792Z,34.90
2017-11-04T22:44:42.278Z,32.90
2017-11-04T22:47:08.770Z,36.30
2017-11-04T22:49:35.278Z,40.13
2017-11-04T22:52:01.805Z,38.20
2017-11-04T22:54:28.355Z,29.67
2017-11-04T22:56:54.881Z,33.70
2017-11-04T22:59:21.332Z,33.87
2017-11-04T23:01:48.022Z,32.00
2017-11-04T23:04:15.279Z,39.93
2017-11-04T23:06:42.472Z,37.23
2017-11-04T23:09:09.027Z,37.10
2017-11-04T23:11:35.808Z,31.23
2017-11-04T23:14:03.048Z,35.93
2017-11-04T23:16:29.578Z,30.30
2017-11-04T23:18:56.225Z,28.10
2017-11-04T23:21:22.663Z,31.07
2017-11-04T23:23:49.108Z,29.50
2017-11-04T23:26:15.632Z,28.87
2017-11-04T23:28:42.314Z,30.73
2017-11-04T23:31:08.800Z,31.10
2017-11-04T23:33:35.251Z,29.90
2017-11-04T23:36:01.709Z,35.70
2017-11-04T23:38:28.335Z,31.47
2017-11-04T23:40:54.817Z,30.70
2017-11-04T23:43:21.451Z,32.87
2017-11-04T23:45:48.062Z,31.00
2017-11-04T23:48:14.542Z,38.17
2017-11-04T23:50:41.036Z,30.10
2017-11-04T23:53:07.548Z,29.87
2017-11-04T23:55:34.753Z,36.63
2017-11-04T23:58:01.273Z,42.87
